sensor_id;sensor_type;location;lat;lon;timestamp;P1;P2;P0
65783;PMS5003;52532;53.358;-1.488;2022-10-12T00:02:49;6.7;5.6;
65783;PMS5003;52532;53.358;-1.488;2022-10-12T00:05:59;4.1;4.1;
65783;PMS5003;52532;53.358;-1.488;2022-10-12T00:09:03;1.7;1.7;
65783;PMS5003;52532;53.358;-1.488;2022-10-12T00:12:05;4.8;4.8;
65783;PMS5003;52532;53.358;-1.488;2022-10-12T00:15:09;4.4;4.4;
65783;PMS5003;52532;53.358;-1.488;2022-10-12T00:18:21;1.0;1.0;
65783;PMS5003;52532;53.358;-1.488;2022-10-12T00:21:25;2.6;2.6;
65783;PMS5003;52532;53.358;-1.488;2022-10-12T00:24:31;2.9;2.5;
65783;PMS5003;52532;53.358;-1.488;2022-10-12T00:27:33;1.0;0.0;
65783;PMS5003;52532;53.358;-1.488;2022-10-12T00:30:38;6.2;4.4;
65783;PMS5003;52532;53.358;-1.488;2022-10-12T00:33:42;10.8;7.0;
65783;PMS5003;52532;53.358;-1.488;2022-10-12T00:36:45;3.0;1.3;
65783;PMS5003;52532;53.358;-1.488;2022-10-12T00:39:48;14.0;10.1;
65783;PMS5003;52532;53.358;-1.488;2022-10-12T00:42:51;9.4;7.3;
65783;PMS5003;52532;53.358;-1.488;2022-10-12T00:45:54;2.1;0.5;
65783;PMS5003;52532;53.358;-1.488;2022-10-12T00:48:58;15.7;11.4;
65783;PMS5003;52532;53.358;-1.488;2022-10-12T00:52:10;12.7;8.4;
65783;PMS5003;52532;53.358;-1.488;2022-10-12T00:55:17;4.6;3.2;
65783;PMS5003;52532;53.358;-1.488;2022-10-12T00:58:22;20.3;20.3;
65783;PMS5003;52532;53.358;-1.488;2022-10-12T01:01:25;9.1;8.0;
65783;PMS5003;52532;53.358;-1.488;2022-10-12T01:04:29;6.5;4.6;
65783;PMS5003;52532;53.358;-1.488;2022-10-12T01:07:33;17.7;16.7;
65783;PMS5003;52532;53.358;-1.488;2022-10-12T01:10:36;5.2;5.0;
65783;PMS5003;52532;53.358;-1.488;2022-10-12T01:13:39;6.4;5.6;
65783;PMS5003;52532;53.358;-1.488;2022-10-12T01:19:59;3.6;2.8;
65783;PMS5003;52532;53.358;-1.488;2022-10-12T01:23:33;2.3;2.3;
65783;PMS5003;52532;53.358;-1.488;2022-10-12T01:26:52;4.0;3.8;
65783;PMS5003;52532;53.358;-1.488;2022-10-12T01:30:18;2.8;2.6;
65783;PMS5003;52532;53.358;-1.488;2022-10-12T01:33:23;8.3;7.4;
65783;PMS5003;52532;53.358;-1.488;2022-10-12T01:36:34;7.7;7.5;
65783;PMS5003;52532;53.358;-1.488;2022-10-12T01:39:42;4.2;3.7;
65783;PMS5003;52532;53.358;-1.488;2022-10-12T01:42:49;6.8;5.5;
65783;PMS5003;52532;53.358;-1.488;2022-10-12T01:45:55;8.2;6.0;
65783;PMS5003;52532;53.358;-1.488;2022-10-12T01:49:04;4.0;4.0;
65783;PMS5003;52532;53.358;-1.488;2022-10-12T01:52:12;3.7;3.7;
65783;PMS5003;52532;53.358;-1.488;2022-10-12T01:55:25;2.7;2.7;
65783;PMS5003;52532;53.358;-1.488;2022-10-12T01:58:43;3.4;3.1;
65783;PMS5003;52532;53.358;-1.488;2022-10-12T02:01:56;7.8;4.5;
65783;PMS5003;52532;53.358;-1.488;2022-10-12T02:05:06;6.5;3.3;
65783;PMS5003;52532;53.358;-1.488;2022-10-12T02:08:14;5.1;3.0;
65783;PMS5003;52532;53.358;-1.488;2022-10-12T02:11:24;2.4;2.4;
65783;PMS5003;52532;53.358;-1.488;2022-10-12T02:14:29;1.7;1.7;
65783;PMS5003;52532;53.358;-1.488;2022-10-12T02:17:36;1.2;0.7;
65783;PMS5003;52532;53.358;-1.488;2022-10-12T02:20:42;7.9;5.7;
65783;PMS5003;52532;53.358;-1.488;2022-10-12T02:23:47;15.2;11.1;
65783;PMS5003;52532;53.358;-1.488;2022-10-12T02:26:53;1.6;0.5;
65783;PMS5003;52532;53.358;-1.488;2022-10-12T02:29:57;5.5;5.5;
65783;PMS5003;52532;53.358;-1.488;2022-10-12T02:33:02;12.5;11.0;
65783;PMS5003;52532;53.358;-1.488;2022-10-12T02:36:10;2.2;1.2;
65783;PMS5003;52532;53.358;-1.488;2022-10-12T02:39:20;6.5;5.1;
65783;PMS5003;52532;53.358;-1.488;2022-10-12T02:42:28;8.7;6.5;
65783;PMS5003;52532;53.358;-1.488;2022-10-12T02:45:34;2.4;1.2;
65783;PMS5003;52532;53.358;-1.488;2022-10-12T02:48:39;4.0;2.1;
65783;PMS5003;52532;53.358;-1.488;2022-10-12T02:51:45;2.6;2.6;
65783;PMS5003;52532;53.358;-1.488;2022-10-12T02:54:49;3.9;2.8;
65783;PMS5003;52532;53.358;-1.488;2022-10-12T02:57:52;3.4;3.0;
65783;PMS5003;52532;53.358;-1.488;2022-10-12T03:00:55;2.2;1.1;
65783;PMS5003;52532;53.358;-1.488;2022-10-12T03:03:58;3.1;1.0;
65783;PMS5003;52532;53.358;-1.488;2022-10-12T03:07:01;4.0;2.4;
65783;PMS5003;52532;53.358;-1.488;2022-10-12T03:10:05;2.3;1.0;
65783;PMS5003;52532;53.358;-1.488;2022-10-12T03:13:08;0.8;0.5;
65783;PMS5003;52532;53.358;-1.488;2022-10-12T03:16:11;7.4;7.4;
65783;PMS5003;52532;53.358;-1.488;2022-10-12T03:19:14;1.1;1.1;
65783;PMS5003;52532;53.358;-1.488;2022-10-12T03:22:16;0.1;0.1;
65783;PMS5003;52532;53.358;-1.488;2022-10-12T03:25:19;1.0;1.0;
65783;PMS5003;52532;53.358;-1.488;2022-10-12T03:28:22;2.0;1.0;
65783;PMS5003;52532;53.358;-1.488;2022-10-12T03:31:25;3.6;1.7;
65783;PMS5003;52532;53.358;-1.488;2022-10-12T03:34:28;4.0;2.0;
65783;PMS5003;52532;53.358;-1.488;2022-10-12T03:37:31;1.0;0.9;
65783;PMS5003;52532;53.358;-1.488;2022-10-12T03:40:33;5.5;1.7;
65783;PMS5003;52532;53.358;-1.488;2022-10-12T03:43:36;4.4;2.6;
65783;PMS5003;52532;53.358;-1.488;2022-10-12T03:46:39;0.4;0.4;
65783;PMS5003;52532;53.358;-1.488;2022-10-12T03:49:42;2.8;1.5;
65783;PMS5003;52532;53.358;-1.488;2022-10-12T03:52:45;2.7;1.2;
65783;PMS5003;52532;53.358;-1.488;2022-10-12T03:55:47;1.2;1.0;
65783;PMS5003;52532;53.358;-1.488;2022-10-12T03:58:50;2.0;0.9;
65783;PMS5003;52532;53.358;-1.488;2022-10-12T04:01:53;3.8;2.0;
65783;PMS5003;52532;53.358;-1.488;2022-10-12T04:04:56;2.7;1.2;
65783;PMS5003;52532;53.358;-1.488;2022-10-12T04:07:58;2.6;0.6;
65783;PMS5003;52532;53.358;-1.488;2022-10-12T04:11:01;2.1;1.0;
65783;PMS5003;52532;53.358;-1.488;2022-10-12T04:14:04;2.7;0.8;
65783;PMS5003;52532;53.358;-1.488;2022-10-12T04:17:10;1.4;1.4;
65783;PMS5003;52532;53.358;-1.488;2022-10-12T04:20:13;1.4;1.4;
65783;PMS5003;52532;53.358;-1.488;2022-10-12T04:23:16;1.5;1.5;
65783;PMS5003;52532;53.358;-1.488;2022-10-12T04:26:19;3.2;2.1;
65783;PMS5003;52532;53.358;-1.488;2022-10-12T04:29:22;2.3;1.6;
65783;PMS5003;52532;53.358;-1.488;2022-10-12T04:32:25;3.2;1.0;
65783;PMS5003;52532;53.358;-1.488;2022-10-12T04:35:28;1.7;0.7;
65783;PMS5003;52532;53.358;-1.488;2022-10-12T04:38:31;1.2;1.2;
65783;PMS5003;52532;53.358;-1.488;2022-10-12T04:41:34;1.7;1.7;
65783;PMS5003;52532;53.358;-1.488;2022-10-12T04:44:37;2.2;0.4;
65783;PMS5003;52532;53.358;-1.488;2022-10-12T04:47:40;2.0;0.8;
65783;PMS5003;52532;53.358;-1.488;2022-10-12T04:50:43;1.0;0.7;
65783;PMS5003;52532;53.358;-1.488;2022-10-12T04:53:45;1.9;1.0;
65783;PMS5003;52532;53.358;-1.488;2022-10-12T04:56:48;1.5;0.5;
65783;PMS5003;52532;53.358;-1.488;2022-10-12T04:59:51;0.9;0.9;
65783;PMS5003;52532;53.358;-1.488;2022-10-12T05:02:54;3.1;1.0;
65783;PMS5003;52532;53.358;-1.488;2022-10-12T05:05:56;3.0;1.0;
65783;PMS5003;52532;53.358;-1.488;2022-10-12T05:08:59;2.4;1.5;
65783;PMS5003;52532;53.358;-1.488;2022-10-12T05:12:02;2.6;2.0;
65783;PMS5003;52532;53.358;-1.488;2022-10-12T05:15:05;3.0;1.6;
65783;PMS5003;52532;53.358;-1.488;2022-10-12T05:18:09;4.6;2.9;
65783;PMS5003;52532;53.358;-1.488;2022-10-12T05:21:12;8.0;5.1;
65783;PMS5003;52532;53.358;-1.488;2022-10-12T05:24:15;6.4;2.8;
65783;PMS5003;52532;53.358;-1.488;2022-10-12T05:27:17;6.9;3.4;
65783;PMS5003;52532;53.358;-1.488;2022-10-12T05:30:21;5.6;2.2;
65783;PMS5003;52532;53.358;-1.488;2022-10-12T05:33:24;7.2;4.3;
65783;PMS5003;52532;53.358;-1.488;2022-10-12T05:36:27;4.6;3.8;
65783;PMS5003;52532;53.358;-1.488;2022-10-12T05:39:30;4.9;4.4;
65783;PMS5003;52532;53.358;-1.488;2022-10-12T05:42:33;3.6;3.6;
65783;PMS5003;52532;53.358;-1.488;2022-10-12T05:45:36;5.1;3.3;
65783;PMS5003;52532;53.358;-1.488;2022-10-12T05:48:39;6.4;4.9;
65783;PMS5003;52532;53.358;-1.488;2022-10-12T05:51:42;3.5;3.2;
65783;PMS5003;52532;53.358;-1.488;2022-10-12T05:54:45;6.9;5.2;
65783;PMS5003;52532;53.358;-1.488;2022-10-12T05:57:47;9.1;5.7;
65783;PMS5003;52532;53.358;-1.488;2022-10-12T06:00:52;4.5;3.8;
65783;PMS5003;52532;53.358;-1.488;2022-10-12T06:03:55;3.8;3.0;
65783;PMS5003;52532;53.358;-1.488;2022-10-12T06:06:58;5.6;3.3;
65783;PMS5003;52532;53.358;-1.488;2022-10-12T06:10:01;6.8;5.0;
65783;PMS5003;52532;53.358;-1.488;2022-10-12T06:13:04;6.4;4.7;
65783;PMS5003;52532;53.358;-1.488;2022-10-12T06:16:07;7.0;4.1;
65783;PMS5003;52532;53.358;-1.488;2022-10-12T06:19:10;2.6;2.1;
65783;PMS5003;52532;53.358;-1.488;2022-10-12T06:22:13;4.5;3.4;
65783;PMS5003;52532;53.358;-1.488;2022-10-12T06:25:16;4.5;2.7;
65783;PMS5003;52532;53.358;-1.488;2022-10-12T06:28:19;2.7;2.1;
65783;PMS5003;52532;53.358;-1.488;2022-10-12T06:31:22;5.4;4.7;
65783;PMS5003;52532;53.358;-1.488;2022-10-12T06:34:25;6.8;6.8;
65783;PMS5003;52532;53.358;-1.488;2022-10-12T06:37:27;3.7;2.8;
65783;PMS5003;52532;53.358;-1.488;2022-10-12T06:40:30;5.9;4.3;
65783;PMS5003;52532;53.358;-1.488;2022-10-12T06:43:34;5.2;4.0;
65783;PMS5003;52532;53.358;-1.488;2022-10-12T06:46:36;4.7;4.7;
65783;PMS5003;52532;53.358;-1.488;2022-10-12T06:49:39;7.5;3.9;
65783;PMS5003;52532;53.358;-1.488;2022-10-12T06:52:42;7.4;3.3;
65783;PMS5003;52532;53.358;-1.488;2022-10-12T06:55:45;6.8;3.2;
65783;PMS5003;52532;53.358;-1.488;2022-10-12T06:58:52;5.6;4.6;
65783;PMS5003;52532;53.358;-1.488;2022-10-12T07:01:55;7.8;5.7;
65783;PMS5003;52532;53.358;-1.488;2022-10-12T07:04:58;6.0;3.9;
65783;PMS5003;52532;53.358;-1.488;2022-10-12T07:08:02;3.8;3.2;
65783;PMS5003;52532;53.358;-1.488;2022-10-12T07:11:05;6.5;2.8;
65783;PMS5003;52532;53.358;-1.488;2022-10-12T07:14:10;5.9;2.7;
65783;PMS5003;52532;53.358;-1.488;2022-10-12T07:17:13;5.5;3.9;
65783;PMS5003;52532;53.358;-1.488;2022-10-12T07:20:15;5.3;3.6;
65783;PMS5003;52532;53.358;-1.488;2022-10-12T07:23:18;4.3;4.3;
65783;PMS5003;52532;53.358;-1.488;2022-10-12T07:26:21;8.0;5.5;
65783;PMS5003;52532;53.358;-1.488;2022-10-12T07:29:24;8.2;4.6;
65783;PMS5003;52532;53.358;-1.488;2022-10-12T07:32:27;5.6;4.7;
65783;PMS5003;52532;53.358;-1.488;2022-10-12T07:35:29;6.9;4.6;
65783;PMS5003;52532;53.358;-1.488;2022-10-12T07:38:32;8.3;4.4;
65783;PMS5003;52532;53.358;-1.488;2022-10-12T07:41:35;7.5;5.4;
65783;PMS5003;52532;53.358;-1.488;2022-10-12T07:44:38;4.9;4.1;
65783;PMS5003;52532;53.358;-1.488;2022-10-12T07:47:41;5.9;4.7;
65783;PMS5003;52532;53.358;-1.488;2022-10-12T07:50:44;10.8;8.0;
65783;PMS5003;52532;53.358;-1.488;2022-10-12T07:53:47;11.9;7.7;
65783;PMS5003;52532;53.358;-1.488;2022-10-12T07:56:51;8.7;6.0;
65783;PMS5003;52532;53.358;-1.488;2022-10-12T07:59:54;7.2;7.2;
65783;PMS5003;52532;53.358;-1.488;2022-10-12T08:02:57;7.8;7.3;
65783;PMS5003;52532;53.358;-1.488;2022-10-12T08:06:06;8.6;6.7;
65783;PMS5003;52532;53.358;-1.488;2022-10-12T08:09:10;11.0;9.0;
65783;PMS5003;52532;53.358;-1.488;2022-10-12T08:15:30;12.1;8.5;
65783;PMS5003;52532;53.358;-1.488;2022-10-12T08:18:43;7.3;6.0;
65783;PMS5003;52532;53.358;-1.488;2022-10-12T08:21:47;11.2;8.5;
65783;PMS5003;52532;53.358;-1.488;2022-10-12T08:24:51;8.8;6.4;
65783;PMS5003;52532;53.358;-1.488;2022-10-12T08:27:53;3.6;2.1;
65783;PMS5003;52532;53.358;-1.488;2022-10-12T08:30:56;6.1;1.6;
65783;PMS5003;52532;53.358;-1.488;2022-10-12T08:33:59;2.2;1.0;
65783;PMS5003;52532;53.358;-1.488;2022-10-12T08:37:02;0.1;0.1;
65783;PMS5003;52532;53.358;-1.488;2022-10-12T08:40:05;1.7;1.7;
65783;PMS5003;52532;53.358;-1.488;2022-10-12T08:43:13;1.0;1.0;
65783;PMS5003;52532;53.358;-1.488;2022-10-12T08:46:26;0.7;0.0;
65783;PMS5003;52532;53.358;-1.488;2022-10-12T08:49:30;5.5;0.0;
65783;PMS5003;52532;53.358;-1.488;2022-10-12T08:52:35;2.4;0.0;
65783;PMS5003;52532;53.358;-1.488;2022-10-12T08:55:43;0.9;0.2;
65783;PMS5003;52532;53.358;-1.488;2022-10-12T08:58:48;1.5;0.9;
65783;PMS5003;52532;53.358;-1.488;2022-10-12T09:01:57;0.6;0.3;
65783;PMS5003;52532;53.358;-1.488;2022-10-12T09:05:06;3.3;0.3;
65783;PMS5003;52532;53.358;-1.488;2022-10-12T09:08:13;0.1;0.1;
65783;PMS5003;52532;53.358;-1.488;2022-10-12T09:14:39;1.4;0.1;
65783;PMS5003;52532;53.358;-1.488;2022-10-12T09:17:45;4.8;2.1;
65783;PMS5003;52532;53.358;-1.488;2022-10-12T09:20:52;2.8;1.3;
65783;PMS5003;52532;53.358;-1.488;2022-10-12T09:23:55;1.0;1.0;
65783;PMS5003;52532;53.358;-1.488;2022-10-12T09:26:59;0.3;0.3;
65783;PMS5003;52532;53.358;-1.488;2022-10-12T09:30:14;2.9;0.0;
65783;PMS5003;52532;53.358;-1.488;2022-10-12T09:33:19;12.5;0.0;
65783;PMS5003;52532;53.358;-1.488;2022-10-12T09:36:29;9.5;0.0;
65783;PMS5003;52532;53.358;-1.488;2022-10-12T09:39:35;2.9;0.0;
65783;PMS5003;52532;53.358;-1.488;2022-10-12T09:42:38;2.1;0.0;
65783;PMS5003;52532;53.358;-1.488;2022-10-12T09:45:42;2.0;1.0;
65783;PMS5003;52532;53.358;-1.488;2022-10-12T09:49:00;1.9;1.1;
65783;PMS5003;52532;53.358;-1.488;2022-10-12T09:52:03;3.9;0.5;
65783;PMS5003;52532;53.358;-1.488;2022-10-12T09:55:15;1.3;0.6;
65783;PMS5003;52532;53.358;-1.488;2022-10-12T09:58:24;0.5;0.5;
65783;PMS5003;52532;53.358;-1.488;2022-10-12T10:01:29;1.5;0.2;
65783;PMS5003;52532;53.358;-1.488;2022-10-12T10:04:33;0.7;0.7;
65783;PMS5003;52532;53.358;-1.488;2022-10-12T10:07:36;0.2;0.2;
65783;PMS5003;52532;53.358;-1.488;2022-10-12T10:10:42;3.3;0.5;
65783;PMS5003;52532;53.358;-1.488;2022-10-12T10:13:50;2.0;1.0;
65783;PMS5003;52532;53.358;-1.488;2022-10-12T10:16:55;0.6;0.2;
65783;PMS5003;52532;53.358;-1.488;2022-10-12T10:20:00;0.0;0.0;
65783;PMS5003;52532;53.358;-1.488;2022-10-12T10:23:16;3.0;1.4;
65783;PMS5003;52532;53.358;-1.488;2022-10-12T10:26:26;0.7;0.5;
65783;PMS5003;52532;53.358;-1.488;2022-10-12T10:29:33;1.0;0.8;
65783;PMS5003;52532;53.358;-1.488;2022-10-12T10:32:38;2.0;0.0;
65783;PMS5003;52532;53.358;-1.488;2022-10-12T10:35:46;1.2;1.0;
65783;PMS5003;52532;53.358;-1.488;2022-10-12T10:38:57;2.0;1.3;
65783;PMS5003;52532;53.358;-1.488;2022-10-12T10:42:10;3.5;1.5;
65783;PMS5003;52532;53.358;-1.488;2022-10-12T10:45:22;0.8;0.3;
65783;PMS5003;52532;53.358;-1.488;2022-10-12T10:48:28;1.4;0.8;
65783;PMS5003;52532;53.358;-1.488;2022-10-12T10:51:40;1.0;1.0;
65783;PMS5003;52532;53.358;-1.488;2022-10-12T10:54:45;9.2;0.0;
65783;PMS5003;52532;53.358;-1.488;2022-10-12T10:57:55;10.6;0.0;
65783;PMS5003;52532;53.358;-1.488;2022-10-12T11:01:05;7.7;0.0;
65783;PMS5003;52532;53.358;-1.488;2022-10-12T11:04:18;2.0;0.7;
65783;PMS5003;52532;53.358;-1.488;2022-10-12T11:07:26;0.4;0.2;
65783;PMS5003;52532;53.358;-1.488;2022-10-12T11:10:36;0.7;0.0;
65783;PMS5003;52532;53.358;-1.488;2022-10-12T11:13:46;1.3;1.3;
65783;PMS5003;52532;53.358;-1.488;2022-10-12T11:16:56;0.3;0.0;
65783;PMS5003;52532;53.358;-1.488;2022-10-12T11:20:10;3.2;0.1;
65783;PMS5003;52532;53.358;-1.488;2022-10-12T11:23:32;8.8;0.0;
65783;PMS5003;52532;53.358;-1.488;2022-10-12T11:26:42;10.0;0.0;
65783;PMS5003;52532;53.358;-1.488;2022-10-12T11:29:49;6.6;0.0;
65783;PMS5003;52532;53.358;-1.488;2022-10-12T11:33:04;11.3;0.0;
65783;PMS5003;52532;53.358;-1.488;2022-10-12T11:36:10;10.8;0.0;
65783;PMS5003;52532;53.358;-1.488;2022-10-12T11:39:17;8.1;0.4;
65783;PMS5003;52532;53.358;-1.488;2022-10-12T11:42:27;10.7;0.0;
65783;PMS5003;52532;53.358;-1.488;2022-10-12T11:45:41;10.1;0.1;
65783;PMS5003;52532;53.358;-1.488;2022-10-12T11:48:49;7.7;1.1;
65783;PMS5003;52532;53.358;-1.488;2022-10-12T11:51:56;10.1;0.0;
65783;PMS5003;52532;53.358;-1.488;2022-10-12T11:55:05;10.1;0.0;
65783;PMS5003;52532;53.358;-1.488;2022-10-12T11:58:27;6.9;0.0;
65783;PMS5003;52532;53.358;-1.488;2022-10-12T12:01:35;10.9;0.0;
65783;PMS5003;52532;53.358;-1.488;2022-10-12T12:04:44;10.8;0.0;
65783;PMS5003;52532;53.358;-1.488;2022-10-12T12:07:50;7.5;0.3;
65783;PMS5003;52532;53.358;-1.488;2022-10-12T12:11:03;9.4;0.0;
65783;PMS5003;52532;53.358;-1.488;2022-10-12T12:22:47;11.7;1.2;
65783;PMS5003;52532;53.358;-1.488;2022-10-12T12:26:03;13.6;1.6;
65783;PMS5003;52532;53.358;-1.488;2022-10-12T12:29:18;8.8;1.3;
65783;PMS5003;52532;53.358;-1.488;2022-10-12T12:32:38;12.8;1.0;
65783;PMS5003;52532;53.358;-1.488;2022-10-12T12:35:50;15.7;1.8;
65783;PMS5003;52532;53.358;-1.488;2022-10-12T12:38:55;8.9;2.1;
65783;PMS5003;52532;53.358;-1.488;2022-10-12T12:41:59;12.3;0.8;
65783;PMS5003;52532;53.358;-1.488;2022-10-12T12:45:37;11.8;1.5;
65783;PMS5003;52532;53.358;-1.488;2022-10-12T12:49:47;9.1;1.6;
65783;PMS5003;52532;53.358;-1.488;2022-10-12T12:52:51;14.2;1.6;
65783;PMS5003;52532;53.358;-1.488;2022-10-12T12:56:02;18.4;2.5;
65783;PMS5003;52532;53.358;-1.488;2022-10-12T12:59:27;11.8;3.3;
65783;PMS5003;52532;53.358;-1.488;2022-10-12T13:02:57;13.6;2.3;
65783;PMS5003;52532;53.358;-1.488;2022-10-12T13:06:20;12.2;2.0;
65783;PMS5003;52532;53.358;-1.488;2022-10-12T13:09:56;9.0;2.0;
65783;PMS5003;52532;53.358;-1.488;2022-10-12T13:13:17;13.3;2.6;
65783;PMS5003;52532;53.358;-1.488;2022-10-12T13:16:40;13.9;1.5;
65783;PMS5003;52532;53.358;-1.488;2022-10-12T13:20:00;9.5;2.0;
65783;PMS5003;52532;53.358;-1.488;2022-10-12T13:23:06;11.9;3.1;
65783;PMS5003;52532;53.358;-1.488;2022-10-12T13:26:16;6.1;5.5;
65783;PMS5003;52532;53.358;-1.488;2022-10-12T13:29:26;8.3;1.9;
65783;PMS5003;52532;53.358;-1.488;2022-10-12T13:32:39;13.4;1.9;
65783;PMS5003;52532;53.358;-1.488;2022-10-12T13:35:51;14.6;3.2;
65783;PMS5003;52532;53.358;-1.488;2022-10-12T13:39:07;15.4;6.2;
65783;PMS5003;52532;53.358;-1.488;2022-10-12T13:42:17;11.9;4.1;
65783;PMS5003;52532;53.358;-1.488;2022-10-12T13:45:26;10.0;8.3;
65783;PMS5003;52532;53.358;-1.488;2022-10-12T13:48:29;13.8;4.0;
65783;PMS5003;52532;53.358;-1.488;2022-10-12T13:51:32;16.6;6.3;
65783;PMS5003;52532;53.358;-1.488;2022-10-12T13:54:36;15.5;4.7;
65783;PMS5003;52532;53.358;-1.488;2022-10-12T13:57:42;13.3;3.7;
65783;PMS5003;52532;53.358;-1.488;2022-10-12T14:00:48;18.3;6.1;
65783;PMS5003;52532;53.358;-1.488;2022-10-12T14:03:51;15.2;5.7;
65783;PMS5003;52532;53.358;-1.488;2022-10-12T14:07:04;18.4;9.1;
65783;PMS5003;52532;53.358;-1.488;2022-10-12T14:10:15;21.0;14.5;
65783;PMS5003;52532;53.358;-1.488;2022-10-12T14:13:21;16.5;14.3;
65783;PMS5003;52532;53.358;-1.488;2022-10-12T14:16:28;30.4;11.1;
65783;PMS5003;52532;53.358;-1.488;2022-10-12T14:19:34;31.0;15.2;
65783;PMS5003;52532;53.358;-1.488;2022-10-12T14:22:45;26.4;15.5;
65783;PMS5003;52532;53.358;-1.488;2022-10-12T14:25:50;22.5;8.8;
65783;PMS5003;52532;53.358;-1.488;2022-10-12T14:28:55;28.9;11.7;
65783;PMS5003;52532;53.358;-1.488;2022-10-12T14:32:00;21.6;10.4;
65783;PMS5003;52532;53.358;-1.488;2022-10-12T14:35:18;16.8;7.6;
65783;PMS5003;52532;53.358;-1.488;2022-10-12T14:38:41;15.1;8.7;
65783;PMS5003;52532;53.358;-1.488;2022-10-12T14:41:48;11.8;10.1;
65783;PMS5003;52532;53.358;-1.488;2022-10-12T14:44:52;14.7;5.8;
65783;PMS5003;52532;53.358;-1.488;2022-10-12T14:47:56;17.4;7.1;
65783;PMS5003;52532;53.358;-1.488;2022-10-12T14:51:02;18.0;9.0;
65783;PMS5003;52532;53.358;-1.488;2022-10-12T14:54:05;18.7;7.6;
65783;PMS5003;52532;53.358;-1.488;2022-10-12T14:57:10;19.6;7.4;
65783;PMS5003;52532;53.358;-1.488;2022-10-12T15:00:15;17.1;7.8;
65783;PMS5003;52532;53.358;-1.488;2022-10-12T15:03:20;14.0;3.3;
65783;PMS5003;52532;53.358;-1.488;2022-10-12T15:06:24;9.6;3.3;
65783;PMS5003;52532;53.358;-1.488;2022-10-12T15:09:27;9.9;3.0;
65783;PMS5003;52532;53.358;-1.488;2022-10-12T15:12:30;13.3;3.5;
65783;PMS5003;52532;53.358;-1.488;2022-10-12T15:15:34;14.0;3.0;
65783;PMS5003;52532;53.358;-1.488;2022-10-12T15:18:41;10.2;2.5;
65783;PMS5003;52532;53.358;-1.488;2022-10-12T15:21:44;14.0;3.3;
65783;PMS5003;52532;53.358;-1.488;2022-10-12T15:24:48;14.1;2.9;
65783;PMS5003;52532;53.358;-1.488;2022-10-12T15:27:52;9.5;2.8;
65783;PMS5003;52532;53.358;-1.488;2022-10-12T15:30:55;12.6;1.3;
65783;PMS5003;52532;53.358;-1.488;2022-10-12T15:33:58;12.2;1.2;
65783;PMS5003;52532;53.358;-1.488;2022-10-12T15:37:01;9.7;1.7;
65783;PMS5003;52532;53.358;-1.488;2022-10-12T15:40:05;11.6;1.7;
65783;PMS5003;52532;53.358;-1.488;2022-10-12T15:43:10;12.9;1.1;
65783;PMS5003;52532;53.358;-1.488;2022-10-12T15:46:13;10.9;0.6;
65783;PMS5003;52532;53.358;-1.488;2022-10-12T15:49:16;14.3;1.7;
65783;PMS5003;52532;53.358;-1.488;2022-10-12T15:52:20;11.7;1.0;
65783;PMS5003;52532;53.358;-1.488;2022-10-12T15:55:24;7.3;1.0;
65783;PMS5003;52532;53.358;-1.488;2022-10-12T15:58:28;10.5;0.2;
65783;PMS5003;52532;53.358;-1.488;2022-10-12T16:01:32;11.4;0.7;
65783;PMS5003;52532;53.358;-1.488;2022-10-12T16:04:35;8.3;0.7;
65783;PMS5003;52532;53.358;-1.488;2022-10-12T16:07:38;12.9;1.2;
65783;PMS5003;52532;53.358;-1.488;2022-10-12T16:10:41;12.6;2.2;
65783;PMS5003;52532;53.358;-1.488;2022-10-12T16:13:44;8.2;1.8;
65783;PMS5003;52532;53.358;-1.488;2022-10-12T16:16:49;12.7;2.2;
65783;PMS5003;52532;53.358;-1.488;2022-10-12T16:19:52;13.8;2.7;
65783;PMS5003;52532;53.358;-1.488;2022-10-12T16:22:55;8.9;1.3;
65783;PMS5003;52532;53.358;-1.488;2022-10-12T16:26:00;12.0;1.4;
65783;PMS5003;52532;53.358;-1.488;2022-10-12T16:29:10;14.5;1.3;
65783;PMS5003;52532;53.358;-1.488;2022-10-12T16:32:12;11.0;1.6;
65783;PMS5003;52532;53.358;-1.488;2022-10-12T16:35:15;11.5;0.2;
65783;PMS5003;52532;53.358;-1.488;2022-10-12T16:38:18;9.6;0.0;
65783;PMS5003;52532;53.358;-1.488;2022-10-12T16:41:21;7.8;0.7;
65783;PMS5003;52532;53.358;-1.488;2022-10-12T16:44:24;13.8;0.2;
65783;PMS5003;52532;53.358;-1.488;2022-10-12T16:47:27;14.4;1.0;
65783;PMS5003;52532;53.358;-1.488;2022-10-12T16:50:36;8.3;0.1;
65783;PMS5003;52532;53.358;-1.488;2022-10-12T16:53:41;11.3;0.0;
65783;PMS5003;52532;53.358;-1.488;2022-10-12T16:56:44;10.4;0.3;
65783;PMS5003;52532;53.358;-1.488;2022-10-12T16:59:47;7.1;0.2;
65783;PMS5003;52532;53.358;-1.488;2022-10-12T17:02:51;10.9;0.0;
65783;PMS5003;52532;53.358;-1.488;2022-10-12T17:05:59;11.1;0.0;
65783;PMS5003;52532;53.358;-1.488;2022-10-12T17:09:03;0.9;0.0;
65783;PMS5003;52532;53.358;-1.488;2022-10-12T17:12:06;3.0;1.2;
65783;PMS5003;52532;53.358;-1.488;2022-10-12T17:15:10;3.8;1.8;
65783;PMS5003;52532;53.358;-1.488;2022-10-12T17:18:12;5.1;2.7;
65783;PMS5003;52532;53.358;-1.488;2022-10-12T17:21:15;3.2;1.9;
65783;PMS5003;52532;53.358;-1.488;2022-10-12T17:24:19;2.0;1.8;
65783;PMS5003;52532;53.358;-1.488;2022-10-12T17:27:25;0.6;0.6;
65783;PMS5003;52532;53.358;-1.488;2022-10-12T17:30:28;1.0;1.0;
65783;PMS5003;52532;53.358;-1.488;2022-10-12T17:33:31;1.6;0.8;
65783;PMS5003;52532;53.358;-1.488;2022-10-12T17:36:34;8.7;0.1;
65783;PMS5003;52532;53.358;-1.488;2022-10-12T17:39:38;12.6;0.0;
65783;PMS5003;52532;53.358;-1.488;2022-10-12T17:42:43;9.2;0.6;
65783;PMS5003;52532;53.358;-1.488;2022-10-12T17:45:46;1.3;0.7;
65783;PMS5003;52532;53.358;-1.488;2022-10-12T17:48:49;1.8;1.0;
65783;PMS5003;52532;53.358;-1.488;2022-10-12T17:51:51;2.2;0.6;
65783;PMS5003;52532;53.358;-1.488;2022-10-12T17:54:54;8.6;0.0;
65783;PMS5003;52532;53.358;-1.488;2022-10-12T17:57:57;12.3;0.0;
65783;PMS5003;52532;53.358;-1.488;2022-10-12T18:01:02;11.1;0.6;
65783;PMS5003;52532;53.358;-1.488;2022-10-12T18:04:06;3.3;0.8;
65783;PMS5003;52532;53.358;-1.488;2022-10-12T18:07:11;2.2;1.2;
65783;PMS5003;52532;53.358;-1.488;2022-10-12T18:10:14;4.2;1.5;
65783;PMS5003;52532;53.358;-1.488;2022-10-12T18:13:17;0.7;0.7;
65783;PMS5003;52532;53.358;-1.488;2022-10-12T18:16:21;1.5;0.8;
65783;PMS5003;52532;53.358;-1.488;2022-10-12T18:19:25;1.5;0.1;
65783;PMS5003;52532;53.358;-1.488;2022-10-12T18:22:28;3.0;1.4;
65783;PMS5003;52532;53.358;-1.488;2022-10-12T18:25:31;3.6;1.3;
65783;PMS5003;52532;53.358;-1.488;2022-10-12T18:28:37;1.4;0.6;
65783;PMS5003;52532;53.358;-1.488;2022-10-12T18:31:41;1.2;1.2;
65783;PMS5003;52532;53.358;-1.488;2022-10-12T18:34:44;1.3;1.3;
65783;PMS5003;52532;53.358;-1.488;2022-10-12T18:37:47;1.2;1.2;
65783;PMS5003;52532;53.358;-1.488;2022-10-12T18:40:54;2.2;1.1;
65783;PMS5003;52532;53.358;-1.488;2022-10-12T18:47:25;1.3;0.3;
65783;PMS5003;52532;53.358;-1.488;2022-10-12T18:50:28;1.3;1.3;
65783;PMS5003;52532;53.358;-1.488;2022-10-12T18:53:31;3.2;1.4;
65783;PMS5003;52532;53.358;-1.488;2022-10-12T18:56:35;2.2;0.7;
65783;PMS5003;52532;53.358;-1.488;2022-10-12T18:59:43;1.6;1.6;
65783;PMS5003;52532;53.358;-1.488;2022-10-12T19:02:46;0.7;0.7;
65783;PMS5003;52532;53.358;-1.488;2022-10-12T19:05:49;0.7;0.7;
65783;PMS5003;52532;53.358;-1.488;2022-10-12T19:08:53;1.2;1.2;
65783;PMS5003;52532;53.358;-1.488;2022-10-12T19:11:56;1.2;1.0;
65783;PMS5003;52532;53.358;-1.488;2022-10-12T19:14:59;2.2;1.1;
65783;PMS5003;52532;53.358;-1.488;2022-10-12T19:18:03;1.9;0.4;
65783;PMS5003;52532;53.358;-1.488;2022-10-12T19:21:07;3.0;1.0;
65783;PMS5003;52532;53.358;-1.488;2022-10-12T19:24:19;0.9;0.6;
65783;PMS5003;52532;53.358;-1.488;2022-10-12T19:27:22;3.4;1.7;
65783;PMS5003;52532;53.358;-1.488;2022-10-12T19:30:30;4.1;1.1;
65783;PMS5003;52532;53.358;-1.488;2022-10-12T19:33:33;0.8;0.2;
65783;PMS5003;52532;53.358;-1.488;2022-10-12T19:36:36;3.3;1.2;
65783;PMS5003;52532;53.358;-1.488;2022-10-12T19:39:40;2.7;1.7;
65783;PMS5003;52532;53.358;-1.488;2022-10-12T19:42:45;2.1;1.8;
65783;PMS5003;52532;53.358;-1.488;2022-10-12T19:45:49;5.3;1.3;
65783;PMS5003;52532;53.358;-1.488;2022-10-12T19:48:52;5.3;1.8;
65783;PMS5003;52532;53.358;-1.488;2022-10-12T19:51:56;0.9;0.9;
65783;PMS5003;52532;53.358;-1.488;2022-10-12T19:55:04;1.0;1.0;